Terminal Aerodrome Forecast
Issued by NWS Jackson, MS

Home | Current Version | Previous Version | Text Only | Print | Product List | Glossary On
Versions: 1 2 3 4 5 6 7 8 9 10 11 12 13 14 15 16 17
000
FTUS44 KMEG 292049 AAC
TAFTUP
TAF AMD
KTUP 292049Z 2921/3018 36006KT P6SM VCTS SCT050CB BKN150
     FM300200 VRB02KT P6SM SCT050 SCT150
     FM301500 04008KT P6SM SCT250=

USA.gov is the U.S. government's official web portal to all federal, state and local government web resources and services.